sensor_id;sensor_type;location;lat;lon;timestamp;P1;durP1;ratioP1;P2;durP2;ratioP2
34433;SDS011;34290;48.562;13.384;2023-05-16T00:02:01;76.23;;;10.30;;
34433;SDS011;34290;48.562;13.384;2023-05-16T00:04:29;29.37;;;8.23;;
34433;SDS011;34290;48.562;13.384;2023-05-16T00:06:59;37.20;;;8.50;;
34433;SDS011;34290;48.562;13.384;2023-05-16T00:09:26;34.20;;;8.27;;
34433;SDS011;34290;48.562;13.384;2023-05-16T00:11:53;23.70;;;7.47;;
34433;SDS011;34290;48.562;13.384;2023-05-16T00:14:20;47.33;;;8.67;;
34433;SDS011;34290;48.562;13.384;2023-05-16T00:16:50;117.73;;;11.47;;
34433;SDS011;34290;48.562;13.384;2023-05-16T00:19:17;133.73;;;11.53;;
34433;SDS011;34290;48.562;13.384;2023-05-16T00:21:45;63.37;;;9.17;;
34433;SDS011;34290;48.562;13.384;2023-05-16T00:24:13;62.37;;;9.07;;
34433;SDS011;34290;48.562;13.384;2023-05-16T00:26:40;25.97;;;7.37;;
34433;SDS011;34290;48.562;13.384;2023-05-16T00:29:08;29.00;;;8.10;;
34433;SDS011;34290;48.562;13.384;2023-05-16T00:31:35;57.43;;;8.97;;
34433;SDS011;34290;48.562;13.384;2023-05-16T00:34:02;45.80;;;8.27;;
34433;SDS011;34290;48.562;13.384;2023-05-16T00:36:29;71.67;;;9.80;;
34433;SDS011;34290;48.562;13.384;2023-05-16T00:38:56;23.47;;;7.53;;
34433;SDS011;34290;48.562;13.384;2023-05-16T00:41:24;29.63;;;8.20;;
34433;SDS011;34290;48.562;13.384;2023-05-16T00:43:51;33.67;;;8.20;;
34433;SDS011;34290;48.562;13.384;2023-05-16T00:46:18;24.03;;;7.73;;
34433;SDS011;34290;48.562;13.384;2023-05-16T00:48:45;21.10;;;7.53;;
34433;SDS011;34290;48.562;13.384;2023-05-16T00:51:12;18.00;;;7.17;;
34433;SDS011;34290;48.562;13.384;2023-05-16T00:53:39;18.93;;;7.53;;
34433;SDS011;34290;48.562;13.384;2023-05-16T00:56:06;70.17;;;9.00;;
34433;SDS011;34290;48.562;13.384;2023-05-16T00:58:35;23.23;;;7.37;;
34433;SDS011;34290;48.562;13.384;2023-05-16T01:01:02;22.93;;;7.13;;
34433;SDS011;34290;48.562;13.384;2023-05-16T01:03:29;17.03;;;7.50;;
34433;SDS011;34290;48.562;13.384;2023-05-16T01:05:57;23.00;;;8.40;;
34433;SDS011;34290;48.562;13.384;2023-05-16T01:08:24;34.63;;;9.33;;
34433;SDS011;34290;48.562;13.384;2023-05-16T01:10:56;42.67;;;8.97;;
34433;SDS011;34290;48.562;13.384;2023-05-16T01:13:33;89.43;;;10.93;;
34433;SDS011;34290;48.562;13.384;2023-05-16T01:16:09;47.63;;;8.33;;
34433;SDS011;34290;48.562;13.384;2023-05-16T01:18:44;26.10;;;8.23;;
34433;SDS011;34290;48.562;13.384;2023-05-16T01:21:18;17.40;;;7.77;;
34433;SDS011;34290;48.562;13.384;2023-05-16T01:24:03;18.20;;;8.60;;
34433;SDS011;34290;48.562;13.384;2023-05-16T01:26:39;16.50;;;8.20;;
34433;SDS011;34290;48.562;13.384;2023-05-16T01:29:07;23.17;;;8.63;;
34433;SDS011;34290;48.562;13.384;2023-05-16T01:31:34;17.67;;;8.57;;
34433;SDS011;34290;48.562;13.384;2023-05-16T01:34:01;19.03;;;9.20;;
34433;SDS011;34290;48.562;13.384;2023-05-16T01:36:29;19.80;;;8.40;;
34433;SDS011;34290;48.562;13.384;2023-05-16T01:39:10;21.90;;;8.57;;
34433;SDS011;34290;48.562;13.384;2023-05-16T01:41:52;25.07;;;8.63;;
34433;SDS011;34290;48.562;13.384;2023-05-16T01:44:26;14.37;;;7.43;;
34433;SDS011;34290;48.562;13.384;2023-05-16T01:46:59;21.00;;;7.93;;
34433;SDS011;34290;48.562;13.384;2023-05-16T01:49:30;36.57;;;9.60;;
34433;SDS011;34290;48.562;13.384;2023-05-16T01:52:06;17.97;;;8.80;;
34433;SDS011;34290;48.562;13.384;2023-05-16T01:54:37;20.77;;;8.33;;
34433;SDS011;34290;48.562;13.384;2023-05-16T01:57:08;48.20;;;10.20;;
34433;SDS011;34290;48.562;13.384;2023-05-16T01:59:35;34.63;;;10.50;;
34433;SDS011;34290;48.562;13.384;2023-05-16T02:02:03;25.07;;;8.70;;
34433;SDS011;34290;48.562;13.384;2023-05-16T02:04:31;18.07;;;7.13;;
34433;SDS011;34290;48.562;13.384;2023-05-16T02:06:58;13.93;;;6.67;;
34433;SDS011;34290;48.562;13.384;2023-05-16T02:09:26;21.97;;;6.60;;
34433;SDS011;34290;48.562;13.384;2023-05-16T02:11:53;17.33;;;7.70;;
34433;SDS011;34290;48.562;13.384;2023-05-16T02:14:21;19.97;;;7.63;;
34433;SDS011;34290;48.562;13.384;2023-05-16T02:16:49;16.37;;;6.57;;
34433;SDS011;34290;48.562;13.384;2023-05-16T02:19:16;24.20;;;8.37;;
34433;SDS011;34290;48.562;13.384;2023-05-16T02:21:43;18.47;;;8.23;;
34433;SDS011;34290;48.562;13.384;2023-05-16T02:24:10;26.00;;;8.03;;
34433;SDS011;34290;48.562;13.384;2023-05-16T02:26:37;22.40;;;8.17;;
34433;SDS011;34290;48.562;13.384;2023-05-16T02:29:04;49.67;;;9.37;;
34433;SDS011;34290;48.562;13.384;2023-05-16T02:31:33;33.53;;;8.10;;
34433;SDS011;34290;48.562;13.384;2023-05-16T02:34:00;48.17;;;8.50;;
34433;SDS011;34290;48.562;13.384;2023-05-16T02:36:27;19.37;;;7.47;;
34433;SDS011;34290;48.562;13.384;2023-05-16T02:38:56;16.57;;;8.20;;
34433;SDS011;34290;48.562;13.384;2023-05-16T02:41:23;21.53;;;8.87;;
34433;SDS011;34290;48.562;13.384;2023-05-16T02:43:50;46.77;;;10.53;;
34433;SDS011;34290;48.562;13.384;2023-05-16T02:46:21;36.93;;;10.70;;
34433;SDS011;34290;48.562;13.384;2023-05-16T02:48:50;32.70;;;9.53;;
34433;SDS011;34290;48.562;13.384;2023-05-16T02:51:18;26.93;;;10.17;;
34433;SDS011;34290;48.562;13.384;2023-05-16T02:53:46;51.87;;;11.97;;
34433;SDS011;34290;48.562;13.384;2023-05-16T02:56:13;114.03;;;13.57;;
34433;SDS011;34290;48.562;13.384;2023-05-16T02:58:40;123.67;;;12.33;;
34433;SDS011;34290;48.562;13.384;2023-05-16T03:01:08;51.37;;;10.23;;
34433;SDS011;34290;48.562;13.384;2023-05-16T03:03:35;118.97;;;12.90;;
34433;SDS011;34290;48.562;13.384;2023-05-16T03:06:04;135.47;;;13.40;;
34433;SDS011;34290;48.562;13.384;2023-05-16T03:08:31;379.70;;;18.13;;
34433;SDS011;34290;48.562;13.384;2023-05-16T03:10:59;84.30;;;9.93;;
34433;SDS011;34290;48.562;13.384;2023-05-16T03:13:29;55.57;;;10.57;;
34433;SDS011;34290;48.562;13.384;2023-05-16T03:15:57;46.03;;;10.20;;
34433;SDS011;34290;48.562;13.384;2023-05-16T03:18:24;190.33;;;15.17;;
34433;SDS011;34290;48.562;13.384;2023-05-16T03:20:51;93.37;;;11.10;;
34433;SDS011;34290;48.562;13.384;2023-05-16T03:23:19;41.97;;;10.00;;
34433;SDS011;34290;48.562;13.384;2023-05-16T03:25:46;77.20;;;12.00;;
34433;SDS011;34290;48.562;13.384;2023-05-16T03:28:15;72.20;;;11.47;;
34433;SDS011;34290;48.562;13.384;2023-05-16T03:30:43;106.60;;;12.20;;
34433;SDS011;34290;48.562;13.384;2023-05-16T03:33:10;117.60;;;12.53;;
34433;SDS011;34290;48.562;13.384;2023-05-16T03:35:37;157.13;;;14.30;;
34433;SDS011;34290;48.562;13.384;2023-05-16T03:38:05;87.60;;;12.60;;
34433;SDS011;34290;48.562;13.384;2023-05-16T03:40:34;124.87;;;14.23;;
34433;SDS011;34290;48.562;13.384;2023-05-16T03:43:03;177.87;;;16.67;;
34433;SDS011;34290;48.562;13.384;2023-05-16T03:45:30;188.50;;;15.87;;
34433;SDS011;34290;48.562;13.384;2023-05-16T03:47:57;107.60;;;12.87;;
34433;SDS011;34290;48.562;13.384;2023-05-16T03:50:24;75.37;;;13.20;;
34433;SDS011;34290;48.562;13.384;2023-05-16T03:52:51;275.63;;;20.17;;
34433;SDS011;34290;48.562;13.384;2023-05-16T03:55:19;226.83;;;17.77;;
34433;SDS011;34290;48.562;13.384;2023-05-16T03:57:47;195.13;;;15.40;;
34433;SDS011;34290;48.562;13.384;2023-05-16T04:00:16;149.33;;;13.73;;
34433;SDS011;34290;48.562;13.384;2023-05-16T04:02:43;359.03;;;23.50;;
34433;SDS011;34290;48.562;13.384;2023-05-16T04:05:10;106.17;;;13.23;;
34433;SDS011;34290;48.562;13.384;2023-05-16T04:07:38;102.83;;;13.53;;
34433;SDS011;34290;48.562;13.384;2023-05-16T04:10:05;190.67;;;18.03;;
34433;SDS011;34290;48.562;13.384;2023-05-16T04:12:33;214.27;;;15.97;;
34433;SDS011;34290;48.562;13.384;2023-05-16T04:15:01;351.00;;;20.80;;
34433;SDS011;34290;48.562;13.384;2023-05-16T04:17:28;183.17;;;16.37;;
34433;SDS011;34290;48.562;13.384;2023-05-16T04:19:55;483.23;;;25.00;;
34433;SDS011;34290;48.562;13.384;2023-05-16T04:22:22;337.00;;;17.80;;
34433;SDS011;34290;48.562;13.384;2023-05-16T04:24:49;277.97;;;19.20;;
34433;SDS011;34290;48.562;13.384;2023-05-16T04:27:16;133.93;;;13.87;;
34433;SDS011;34290;48.562;13.384;2023-05-16T04:29:44;98.43;;;13.13;;
34433;SDS011;34290;48.562;13.384;2023-05-16T04:32:12;260.40;;;18.93;;
34433;SDS011;34290;48.562;13.384;2023-05-16T04:34:39;238.57;;;17.03;;
34433;SDS011;34290;48.562;13.384;2023-05-16T04:37:08;326.40;;;18.40;;
34433;SDS011;34290;48.562;13.384;2023-05-16T04:39:36;239.83;;;16.47;;
34433;SDS011;34290;48.562;13.384;2023-05-16T04:42:03;159.67;;;15.23;;
34433;SDS011;34290;48.562;13.384;2023-05-16T04:44:31;97.57;;;14.27;;
34433;SDS011;34290;48.562;13.384;2023-05-16T04:46:58;229.47;;;18.23;;
34433;SDS011;34290;48.562;13.384;2023-05-16T04:49:27;263.27;;;18.07;;
34433;SDS011;34290;48.562;13.384;2023-05-16T04:51:54;127.43;;;14.20;;
34433;SDS011;34290;48.562;13.384;2023-05-16T04:54:21;75.73;;;12.37;;
34433;SDS011;34290;48.562;13.384;2023-05-16T04:56:48;116.47;;;14.83;;
34433;SDS011;34290;48.562;13.384;2023-05-16T04:59:15;86.90;;;14.60;;
34433;SDS011;34290;48.562;13.384;2023-05-16T05:01:42;88.43;;;14.07;;
34433;SDS011;34290;48.562;13.384;2023-05-16T05:04:09;178.63;;;18.07;;
34433;SDS011;34290;48.562;13.384;2023-05-16T05:06:37;99.67;;;14.67;;
34433;SDS011;34290;48.562;13.384;2023-05-16T05:09:05;38.83;;;14.03;;
34433;SDS011;34290;48.562;13.384;2023-05-16T05:11:32;51.83;;;14.70;;
34433;SDS011;34290;48.562;13.384;2023-05-16T05:13:59;32.47;;;13.87;;
34433;SDS011;34290;48.562;13.384;2023-05-16T05:16:26;70.20;;;14.77;;
34433;SDS011;34290;48.562;13.384;2023-05-16T05:18:53;42.90;;;15.13;;
34433;SDS011;34290;48.562;13.384;2023-05-16T05:21:20;33.00;;;13.47;;
34433;SDS011;34290;48.562;13.384;2023-05-16T05:23:50;34.80;;;13.67;;
34433;SDS011;34290;48.562;13.384;2023-05-16T05:26:17;36.07;;;13.67;;
34433;SDS011;34290;48.562;13.384;2023-05-16T05:28:46;35.17;;;13.60;;
34433;SDS011;34290;48.562;13.384;2023-05-16T05:31:13;40.97;;;15.63;;
34433;SDS011;34290;48.562;13.384;2023-05-16T05:33:40;35.13;;;14.53;;
34433;SDS011;34290;48.562;13.384;2023-05-16T05:36:08;38.87;;;15.30;;
34433;SDS011;34290;48.562;13.384;2023-05-16T05:38:35;41.70;;;16.03;;
34433;SDS011;34290;48.562;13.384;2023-05-16T05:41:03;32.80;;;14.37;;
34433;SDS011;34290;48.562;13.384;2023-05-16T05:43:30;47.13;;;17.07;;
34433;SDS011;34290;48.562;13.384;2023-05-16T05:45:58;43.07;;;16.30;;
34433;SDS011;34290;48.562;13.384;2023-05-16T05:48:25;48.90;;;17.10;;
34433;SDS011;34290;48.562;13.384;2023-05-16T05:50:53;42.70;;;16.30;;
34433;SDS011;34290;48.562;13.384;2023-05-16T05:53:21;48.23;;;16.33;;
34433;SDS011;34290;48.562;13.384;2023-05-16T05:55:48;41.47;;;16.80;;
34433;SDS011;34290;48.562;13.384;2023-05-16T05:58:16;47.77;;;17.20;;
34433;SDS011;34290;48.562;13.384;2023-05-16T06:00:43;45.97;;;17.70;;
34433;SDS011;34290;48.562;13.384;2023-05-16T06:03:11;47.23;;;17.87;;
34433;SDS011;34290;48.562;13.384;2023-05-16T06:05:38;42.80;;;16.67;;
34433;SDS011;34290;48.562;13.384;2023-05-16T06:08:05;41.20;;;15.77;;
34433;SDS011;34290;48.562;13.384;2023-05-16T06:10:32;41.53;;;17.47;;
34433;SDS011;34290;48.562;13.384;2023-05-16T06:12:59;45.83;;;17.33;;
34433;SDS011;34290;48.562;13.384;2023-05-16T06:15:28;47.80;;;18.77;;
34433;SDS011;34290;48.562;13.384;2023-05-16T06:17:55;50.67;;;19.00;;
34433;SDS011;34290;48.562;13.384;2023-05-16T06:20:22;42.70;;;17.88;;
34433;SDS011;34290;48.562;13.384;2023-05-16T06:22:49;46.97;;;18.60;;
34433;SDS011;34290;48.562;13.384;2023-05-16T06:25:16;40.60;;;18.23;;
34433;SDS011;34290;48.562;13.384;2023-05-16T06:27:43;45.97;;;18.80;;
34433;SDS011;34290;48.562;13.384;2023-05-16T06:30:11;47.63;;;18.93;;
34433;SDS011;34290;48.562;13.384;2023-05-16T06:32:39;41.55;;;19.13;;
34433;SDS011;34290;48.562;13.384;2023-05-16T06:35:07;46.20;;;19.33;;
34433;SDS011;34290;48.562;13.384;2023-05-16T06:37:34;43.00;;;18.40;;
34433;SDS011;34290;48.562;13.384;2023-05-16T06:40:01;44.92;;;19.00;;
34433;SDS011;34290;48.562;13.384;2023-05-16T06:42:29;43.58;;;19.45;;
34433;SDS011;34290;48.562;13.384;2023-05-16T06:44:56;37.22;;;17.02;;
34433;SDS011;34290;48.562;13.384;2023-05-16T06:47:23;42.53;;;18.40;;
34433;SDS011;34290;48.562;13.384;2023-05-16T06:49:52;42.70;;;18.65;;
34433;SDS011;34290;48.562;13.384;2023-05-16T06:52:19;41.17;;;18.43;;
34433;SDS011;34290;48.562;13.384;2023-05-16T06:54:46;39.83;;;18.93;;
34433;SDS011;34290;48.562;13.384;2023-05-16T06:57:13;43.60;;;19.52;;
34433;SDS011;34290;48.562;13.384;2023-05-16T06:59:41;45.13;;;18.43;;
34433;SDS011;34290;48.562;13.384;2023-05-16T07:02:08;44.20;;;18.67;;
34433;SDS011;34290;48.562;13.384;2023-05-16T07:04:35;38.97;;;18.05;;
34433;SDS011;34290;48.562;13.384;2023-05-16T07:07:04;40.85;;;17.75;;
34433;SDS011;34290;48.562;13.384;2023-05-16T07:09:32;40.83;;;18.23;;
34433;SDS011;34290;48.562;13.384;2023-05-16T07:11:59;39.70;;;17.98;;
34433;SDS011;34290;48.562;13.384;2023-05-16T07:14:29;42.73;;;19.43;;
34433;SDS011;34290;48.562;13.384;2023-05-16T07:16:56;41.85;;;18.50;;
34433;SDS011;34290;48.562;13.384;2023-05-16T07:19:23;39.50;;;18.10;;
34433;SDS011;34290;48.562;13.384;2023-05-16T07:21:50;41.38;;;18.23;;
34433;SDS011;34290;48.562;13.384;2023-05-16T07:24:19;38.85;;;18.67;;
34433;SDS011;34290;48.562;13.384;2023-05-16T07:26:46;38.40;;;17.88;;
34433;SDS011;34290;48.562;13.384;2023-05-16T07:29:13;37.70;;;17.80;;
34433;SDS011;34290;48.562;13.384;2023-05-16T07:31:40;35.20;;;17.52;;
34433;SDS011;34290;48.562;13.384;2023-05-16T07:34:08;38.92;;;17.90;;
34433;SDS011;34290;48.562;13.384;2023-05-16T07:36:35;42.15;;;17.50;;
34433;SDS011;34290;48.562;13.384;2023-05-16T07:39:02;37.33;;;17.17;;
34433;SDS011;34290;48.562;13.384;2023-05-16T07:41:31;34.65;;;16.75;;
34433;SDS011;34290;48.562;13.384;2023-05-16T07:43:58;38.53;;;17.00;;
34433;SDS011;34290;48.562;13.384;2023-05-16T07:46:25;30.65;;;15.30;;
34433;SDS011;34290;48.562;13.384;2023-05-16T07:48:52;31.48;;;15.77;;
34433;SDS011;34290;48.562;13.384;2023-05-16T07:51:19;34.33;;;16.42;;
34433;SDS011;34290;48.562;13.384;2023-05-16T07:53:46;40.67;;;16.55;;
34433;SDS011;34290;48.562;13.384;2023-05-16T07:56:13;36.10;;;16.20;;
34433;SDS011;34290;48.562;13.384;2023-05-16T07:58:42;37.00;;;16.80;;
34433;SDS011;34290;48.562;13.384;2023-05-16T08:01:09;33.95;;;16.48;;
34433;SDS011;34290;48.562;13.384;2023-05-16T08:03:36;30.88;;;15.38;;
34433;SDS011;34290;48.562;13.384;2023-05-16T08:06:03;31.42;;;15.55;;
34433;SDS011;34290;48.562;13.384;2023-05-16T08:08:30;26.75;;;14.13;;
34433;SDS011;34290;48.562;13.384;2023-05-16T08:10:57;28.70;;;15.15;;
34433;SDS011;34290;48.562;13.384;2023-05-16T08:13:24;30.25;;;14.90;;
34433;SDS011;34290;48.562;13.384;2023-05-16T08:15:52;26.33;;;13.60;;
34433;SDS011;34290;48.562;13.384;2023-05-16T08:18:19;30.92;;;14.43;;
34433;SDS011;34290;48.562;13.384;2023-05-16T08:20:46;28.38;;;14.90;;
34433;SDS011;34290;48.562;13.384;2023-05-16T08:23:13;25.50;;;13.93;;
34433;SDS011;34290;48.562;13.384;2023-05-16T08:25:40;27.23;;;14.18;;
34433;SDS011;34290;48.562;13.384;2023-05-16T08:28:07;24.95;;;13.98;;
34433;SDS011;34290;48.562;13.384;2023-05-16T08:30:34;26.02;;;13.90;;
34433;SDS011;34290;48.562;13.384;2023-05-16T08:33:04;23.27;;;13.90;;
34433;SDS011;34290;48.562;13.384;2023-05-16T08:35:31;25.60;;;12.05;;
34433;SDS011;34290;48.562;13.384;2023-05-16T08:37:59;23.90;;;13.20;;
34433;SDS011;34290;48.562;13.384;2023-05-16T08:40:27;23.83;;;12.35;;
34433;SDS011;34290;48.562;13.384;2023-05-16T08:42:54;22.83;;;12.23;;
34433;SDS011;34290;48.562;13.384;2023-05-16T08:45:21;21.70;;;12.35;;
34433;SDS011;34290;48.562;13.384;2023-05-16T08:47:49;18.45;;;11.77;;
34433;SDS011;34290;48.562;13.384;2023-05-16T08:50:21;22.40;;;11.90;;
34433;SDS011;34290;48.562;13.384;2023-05-16T08:52:50;23.23;;;13.02;;
34433;SDS011;34290;48.562;13.384;2023-05-16T08:55:18;21.42;;;12.23;;
34433;SDS011;34290;48.562;13.384;2023-05-16T08:57:47;27.48;;;12.38;;
34433;SDS011;34290;48.562;13.384;2023-05-16T09:00:16;22.80;;;12.05;;
34433;SDS011;34290;48.562;13.384;2023-05-16T09:02:44;19.75;;;11.65;;
34433;SDS011;34290;48.562;13.384;2023-05-16T09:05:12;21.13;;;12.43;;
34433;SDS011;34290;48.562;13.384;2023-05-16T09:07:42;18.35;;;11.40;;
34433;SDS011;34290;48.562;13.384;2023-05-16T09:10:10;20.35;;;11.93;;
34433;SDS011;34290;48.562;13.384;2023-05-16T09:12:38;19.45;;;11.30;;
34433;SDS011;34290;48.562;13.384;2023-05-16T09:15:06;23.10;;;11.45;;
34433;SDS011;34290;48.562;13.384;2023-05-16T09:17:35;22.80;;;12.27;;
34433;SDS011;34290;48.562;13.384;2023-05-16T09:20:10;21.90;;;11.35;;
34433;SDS011;34290;48.562;13.384;2023-05-16T09:22:38;23.95;;;11.82;;
34433;SDS011;34290;48.562;13.384;2023-05-16T09:25:08;22.15;;;12.00;;
34433;SDS011;34290;48.562;13.384;2023-05-16T09:27:41;19.95;;;11.45;;
34433;SDS011;34290;48.562;13.384;2023-05-16T09:30:09;21.08;;;11.60;;
34433;SDS011;34290;48.562;13.384;2023-05-16T09:32:36;20.35;;;11.75;;
34433;SDS011;34290;48.562;13.384;2023-05-16T09:35:10;19.90;;;11.32;;
34433;SDS011;34290;48.562;13.384;2023-05-16T09:37:43;21.25;;;11.63;;
34433;SDS011;34290;48.562;13.384;2023-05-16T09:40:12;22.83;;;11.88;;
34433;SDS011;34290;48.562;13.384;2023-05-16T09:42:40;20.50;;;11.88;;
34433;SDS011;34290;48.562;13.384;2023-05-16T09:45:10;20.30;;;11.25;;
34433;SDS011;34290;48.562;13.384;2023-05-16T09:47:38;22.55;;;12.20;;
34433;SDS011;34290;48.562;13.384;2023-05-16T09:50:10;17.90;;;10.70;;
34433;SDS011;34290;48.562;13.384;2023-05-16T09:52:37;20.90;;;11.20;;
34433;SDS011;34290;48.562;13.384;2023-05-16T09:55:05;20.80;;;11.15;;
34433;SDS011;34290;48.562;13.384;2023-05-16T09:57:37;19.95;;;11.07;;
34433;SDS011;34290;48.562;13.384;2023-05-16T10:00:05;23.23;;;10.70;;
34433;SDS011;34290;48.562;13.384;2023-05-16T10:02:36;21.02;;;10.25;;
34433;SDS011;34290;48.562;13.384;2023-05-16T10:05:04;17.48;;;10.48;;
34433;SDS011;34290;48.562;13.384;2023-05-16T10:07:32;14.70;;;9.70;;
34433;SDS011;34290;48.562;13.384;2023-05-16T10:09:59;15.40;;;9.70;;
34433;SDS011;34290;48.562;13.384;2023-05-16T10:12:30;15.55;;;9.30;;
34433;SDS011;34290;48.562;13.384;2023-05-16T10:15:00;15.93;;;9.02;;
34433;SDS011;34290;48.562;13.384;2023-05-16T10:17:29;14.80;;;9.77;;
34433;SDS011;34290;48.562;13.384;2023-05-16T10:20:00;16.67;;;10.10;;
34433;SDS011;34290;48.562;13.384;2023-05-16T10:22:31;16.08;;;8.00;;
34433;SDS011;34290;48.562;13.384;2023-05-16T10:25:02;12.23;;;8.20;;
34433;SDS011;34290;48.562;13.384;2023-05-16T10:27:34;14.38;;;8.48;;
34433;SDS011;34290;48.562;13.384;2023-05-16T10:30:03;11.77;;;8.02;;
34433;SDS011;34290;48.562;13.384;2023-05-16T10:32:31;13.90;;;7.60;;
34433;SDS011;34290;48.562;13.384;2023-05-16T10:34:59;19.70;;;8.27;;
34433;SDS011;34290;48.562;13.384;2023-05-16T10:37:27;13.00;;;7.43;;
34433;SDS011;34290;48.562;13.384;2023-05-16T10:39:56;11.23;;;7.05;;
34433;SDS011;34290;48.562;13.384;2023-05-16T10:42:24;16.00;;;7.43;;
34433;SDS011;34290;48.562;13.384;2023-05-16T10:44:53;11.23;;;7.45;;
34433;SDS011;34290;48.562;13.384;2023-05-16T10:47:22;14.35;;;7.82;;
34433;SDS011;34290;48.562;13.384;2023-05-16T10:49:49;10.50;;;6.57;;
34433;SDS011;34290;48.562;13.384;2023-05-16T10:52:16;10.52;;;6.80;;
34433;SDS011;34290;48.562;13.384;2023-05-16T10:54:49;14.73;;;7.32;;
34433;SDS011;34290;48.562;13.384;2023-05-16T10:57:18;11.95;;;7.80;;
34433;SDS011;34290;48.562;13.384;2023-05-16T10:59:48;12.50;;;7.25;;
34433;SDS011;34290;48.562;13.384;2023-05-16T11:02:26;14.00;;;7.43;;
34433;SDS011;34290;48.562;13.384;2023-05-16T11:04:54;11.43;;;6.90;;
34433;SDS011;34290;48.562;13.384;2023-05-16T11:07:23;11.00;;;7.32;;
34433;SDS011;34290;48.562;13.384;2023-05-16T11:10:01;14.48;;;7.55;;
34433;SDS011;34290;48.562;13.384;2023-05-16T11:15:20;11.85;;;7.47;;
34433;SDS011;34290;48.562;13.384;2023-05-16T11:17:50;10.27;;;7.13;;
34433;SDS011;34290;48.562;13.384;2023-05-16T11:23:22;16.80;;;7.95;;
34433;SDS011;34290;48.562;13.384;2023-05-16T11:25:51;11.10;;;7.50;;
34433;SDS011;34290;48.562;13.384;2023-05-16T11:28:20;14.02;;;8.13;;
34433;SDS011;34290;48.562;13.384;2023-05-16T11:30:49;10.63;;;7.20;;
34433;SDS011;34290;48.562;13.384;2023-05-16T11:33:20;13.90;;;8.48;;
34433;SDS011;34290;48.562;13.384;2023-05-16T11:36:00;11.65;;;7.97;;
34433;SDS011;34290;48.562;13.384;2023-05-16T11:38:29;16.17;;;8.20;;
34433;SDS011;34290;48.562;13.384;2023-05-16T11:41:00;15.23;;;8.77;;
34433;SDS011;34290;48.562;13.384;2023-05-16T11:43:38;16.65;;;8.73;;
34433;SDS011;34290;48.562;13.384;2023-05-16T11:46:05;19.42;;;9.27;;
34433;SDS011;34290;48.562;13.384;2023-05-16T11:48:34;12.18;;;8.10;;
34433;SDS011;34290;48.562;13.384;2023-05-16T11:51:01;15.70;;;8.88;;
34433;SDS011;34290;48.562;13.384;2023-05-16T11:53:28;11.65;;;7.97;;
34433;SDS011;34290;48.562;13.384;2023-05-16T11:55:55;13.00;;;8.02;;
34433;SDS011;34290;48.562;13.384;2023-05-16T11:58:24;13.43;;;8.25;;
34433;SDS011;34290;48.562;13.384;2023-05-16T12:00:51;11.07;;;7.35;;
34433;SDS011;34290;48.562;13.384;2023-05-16T12:03:18;13.68;;;7.97;;
34433;SDS011;34290;48.562;13.384;2023-05-16T12:05:52;11.00;;;7.13;;
34433;SDS011;34290;48.562;13.384;2023-05-16T12:08:20;10.57;;;7.05;;
34433;SDS011;34290;48.562;13.384;2023-05-16T12:10:49;12.10;;;6.72;;
34433;SDS011;34290;48.562;13.384;2023-05-16T12:13:16;13.05;;;7.22;;
34433;SDS011;34290;48.562;13.384;2023-05-16T12:15:45;11.32;;;7.25;;
34433;SDS011;34290;48.562;13.384;2023-05-16T12:18:12;9.02;;;6.40;;
34433;SDS011;34290;48.562;13.384;2023-05-16T12:20:39;11.55;;;6.40;;
34433;SDS011;34290;48.562;13.384;2023-05-16T12:23:10;9.00;;;6.38;;
34433;SDS011;34290;48.562;13.384;2023-05-16T12:25:38;14.23;;;6.97;;
34433;SDS011;34290;48.562;13.384;2023-05-16T12:28:11;11.25;;;7.47;;
34433;SDS011;34290;48.562;13.384;2023-05-16T12:30:39;10.48;;;7.40;;
34433;SDS011;34290;48.562;13.384;2023-05-16T12:33:07;11.70;;;7.97;;
34433;SDS011;34290;48.562;13.384;2023-05-16T12:35:36;12.75;;;8.05;;
34433;SDS011;34290;48.562;13.384;2023-05-16T12:38:05;16.02;;;8.30;;
34433;SDS011;34290;48.562;13.384;2023-05-16T12:40:34;15.25;;;8.30;;
34433;SDS011;34290;48.562;13.384;2023-05-16T12:43:03;12.90;;;8.07;;
34433;SDS011;34290;48.562;13.384;2023-05-16T12:45:32;13.43;;;8.55;;
34433;SDS011;34290;48.562;13.384;2023-05-16T12:48:03;13.05;;;7.85;;
34433;SDS011;34290;48.562;13.384;2023-05-16T12:50:32;13.90;;;8.18;;
34433;SDS011;34290;48.562;13.384;2023-05-16T12:53:00;15.00;;;8.30;;
34433;SDS011;34290;48.562;13.384;2023-05-16T12:55:27;14.98;;;9.10;;
34433;SDS011;34290;48.562;13.384;2023-05-16T12:57:56;11.82;;;7.38;;
34433;SDS011;34290;48.562;13.384;2023-05-16T13:00:23;12.25;;;6.38;;
34433;SDS011;34290;48.562;13.384;2023-05-16T13:02:50;12.23;;;6.95;;
34433;SDS011;34290;48.562;13.384;2023-05-16T13:05:18;12.82;;;7.70;;
34433;SDS011;34290;48.562;13.384;2023-05-16T13:07:47;12.90;;;6.32;;
34433;SDS011;34290;48.562;13.384;2023-05-16T13:10:15;11.77;;;6.03;;
34433;SDS011;34290;48.562;13.384;2023-05-16T13:12:43;9.75;;;6.68;;
34433;SDS011;34290;48.562;13.384;2023-05-16T13:15:12;12.38;;;7.25;;
34433;SDS011;34290;48.562;13.384;2023-05-16T13:17:40;11.48;;;7.30;;
34433;SDS011;34290;48.562;13.384;2023-05-16T13:20:09;14.38;;;7.20;;
34433;SDS011;34290;48.562;13.384;2023-05-16T13:22:39;14.52;;;7.90;;
34433;SDS011;34290;48.562;13.384;2023-05-16T13:25:07;10.20;;;7.32;;
34433;SDS011;34290;48.562;13.384;2023-05-16T13:27:34;15.15;;;7.13;;
34433;SDS011;34290;48.562;13.384;2023-05-16T13:30:01;11.13;;;6.90;;
34433;SDS011;34290;48.562;13.384;2023-05-16T13:32:30;8.80;;;6.50;;
34433;SDS011;34290;48.562;13.384;2023-05-16T13:34:57;11.90;;;6.30;;
34433;SDS011;34290;48.562;13.384;2023-05-16T13:37:24;9.82;;;6.95;;
34433;SDS011;34290;48.562;13.384;2023-05-16T13:39:51;9.05;;;6.57;;
34433;SDS011;34290;48.562;13.384;2023-05-16T13:42:20;11.38;;;6.78;;
34433;SDS011;34290;48.562;13.384;2023-05-16T13:44:47;13.23;;;6.82;;
34433;SDS011;34290;48.562;13.384;2023-05-16T13:47:13;9.48;;;6.72;;
34433;SDS011;34290;48.562;13.384;2023-05-16T13:49:42;11.30;;;7.38;;
34433;SDS011;34290;48.562;13.384;2023-05-16T13:52:09;16.05;;;9.60;;
34433;SDS011;34290;48.562;13.384;2023-05-16T13:54:37;14.30;;;8.85;;
34433;SDS011;34290;48.562;13.384;2023-05-16T13:57:05;9.45;;;6.82;;
34433;SDS011;34290;48.562;13.384;2023-05-16T13:59:32;9.63;;;7.00;;
34433;SDS011;34290;48.562;13.384;2023-05-16T14:01:59;12.73;;;7.00;;
34433;SDS011;34290;48.562;13.384;2023-05-16T14:04:26;10.23;;;7.32;;
34433;SDS011;34290;48.562;13.384;2023-05-16T14:06:54;10.65;;;7.03;;
34433;SDS011;34290;48.562;13.384;2023-05-16T14:09:22;12.65;;;8.35;;
34433;SDS011;34290;48.562;13.384;2023-05-16T14:11:49;13.50;;;8.75;;
34433;SDS011;34290;48.562;13.384;2023-05-16T14:14:16;14.60;;;9.35;;
34433;SDS011;34290;48.562;13.384;2023-05-16T14:16:42;13.07;;;8.60;;
34433;SDS011;34290;48.562;13.384;2023-05-16T14:19:10;12.80;;;8.68;;
34433;SDS011;34290;48.562;13.384;2023-05-16T14:21:37;14.88;;;8.82;;
34433;SDS011;34290;48.562;13.384;2023-05-16T14:24:06;13.77;;;8.55;;
34433;SDS011;34290;48.562;13.384;2023-05-16T14:26:33;14.23;;;9.40;;